• Join FlightAware (Why Join?)
  • Login
  • US Flag 
Gobble Gobble! 
08:21AM EST


 

Airport Tracker/Info


-or-


 

Live Flight TrackerFlight Track Log ✈ SWA329 ✈ 04-Oct-2013 ✈ KBWI - KSDF

Flight Track Log - Related Links

Times and Time Zones

All times are in EDT time to prevent confusion due to time zone crossing. See the SWA329 flight status page for this flight to view local times or setup timezone preferences in your user account.

Time Position Orientation Groundspeed Altitude Reporting Facility
EDT Latitude Longitude Course Direction KTS MPH feet Rate Location/Type
08:22PM 39.1833 -76.7000 270° West 177 204 1,000  Level Potomac TRACON
08:23PM 39.1833 -76.7667 270° West 205 236 2,800 1,860 Climbing Potomac TRACON
08:24PM 39.2000 -76.8500 284° West 256 295 4,800 2,220 Climbing Potomac TRACON
08:25PM 39.2167 -76.9333 284° West 262 302 7,300 2,340 Climbing Potomac TRACON
08:26PM 39.2103 -77.0944 267° West 282 325 10,700 1,860 Climbing Washington Center
08:27PM 39.1844 -77.1769 248° West 301 346 12,100 1,860 Climbing Washington Center
08:28PM 39.0958 -77.2578 215° Southwest 314 361 14,400 2,340 Climbing Washington Center
08:29PM 39.0092 -77.3333 214° Southwest 347 399 16,900 2,160 Climbing Washington Center
08:30PM 38.9225 -77.4086 214° Southwest 370 426 18,800 1,680 Climbing Washington Center
08:31PM 38.8914 -77.5467 254° West 361 415 20,300 1,680 Climbing Washington Center
08:32PM 38.8828 -77.6850 265° West 375 432 22,200 1,680 Climbing Washington Center
08:33PM 38.8739 -77.8233 265° West 394 453 23,700 1,380 Climbing Washington Center
08:34PM 38.8669 -77.9697 267° West 409 471 25,000 1,380 Climbing Washington Center
08:35PM 38.8578 -78.1161 265° West 414 476 26,600 1,260 Climbing Washington Center
08:36PM 38.8525 -78.2625 267° West 414 476 27,600 1,260 Climbing Washington Center
08:37PM 38.8469 -78.4117 267° West 414 476 29,100 1,620 Climbing Washington Center
08:38PM 38.8247 -78.5547 259° West 419 482 30,800 1,380 Climbing Washington Center
08:39PM 38.8044 -78.6978 260° West 419 482 31,900 1,020 Climbing Washington Center
08:40PM 38.7861 -78.8408 261° West 419 482 33,000 1,020 Climbing Washington Center
08:41PM 38.7678 -78.9811 261° West 413 475 34,000 480 Climbing Washington Center
08:42PM 38.7469 -79.1214 259° West 407 468 34,000  Level Washington Center
08:43PM 38.7322 -79.2669 263° West 413 475 34,000  Level Washington Center
08:44PM 38.7089 -79.4094 258° West 413 475 34,000  Level Washington Center
08:45PM 38.6919 -79.5522 261° West 413 475 34,000  Level Washington Center
08:46PM 38.6728 -79.6817 259° West 413 475 34,000  Level Washington Center
08:47PM 38.6514 -79.8239 259° West 408 470 34,000  Level Washington Center
08:50PM 38.5819 -80.1428 255° West 407 468 34,000  Level Indianapolis Center
08:51PM 38.5472 -80.3056 255° West 409 471 34,000  Level Indianapolis Center
08:52PM 38.5183 -80.4417 255° West 410 472 34,000  Level Indianapolis Center
08:53PM 38.4900 -80.5739 255° West 411 473 34,000  Level Indianapolis Center
08:54PM 38.4600 -80.7136 255° West 410 472 34,000  Level Indianapolis Center
08:55PM 38.4233 -80.8814 254° West 407 468 34,000  Level Indianapolis Center
08:56PM 38.3928 -81.0206 254° West 406 467 34,000  Level Indianapolis Center
08:57PM 38.3611 -81.1606 254° West 409 471 34,000  Level Indianapolis Center
08:58PM 38.3303 -81.3017 254° West 410 472 34,000  Level Indianapolis Center
08:59PM 38.2986 -81.4417 254° West 409 471 34,000  Level Indianapolis Center
09:00PM 38.2675 -81.5825 254° West 410 472 34,000  Level Indianapolis Center
09:01PM 38.2358 -81.7217 254° West 408 470 34,000  Level Indianapolis Center
09:02PM 38.2033 -81.8614 254° West 410 472 34,000  Level Indianapolis Center
09:03PM 38.1722 -82.0006 254° West 409 471 34,000  Level Indianapolis Center
09:04PM 38.1400 -82.1394 254° West 409 471 34,000  Level Indianapolis Center
09:05PM 38.1042 -82.2992 254° West 409 471 34,000  Level Indianapolis Center
09:06PM 38.0719 -82.4358 253° West 406 467 34,000  Level Indianapolis Center
09:07PM 38.0389 -82.5733 253° West 408 470 34,000  Level Indianapolis Center
09:08PM 38.0072 -82.7106 254° West 407 468 34,000  Level Indianapolis Center
09:09PM 37.9742 -82.8483 253° West 408 470 34,000  Level Indianapolis Center
09:10PM 37.9414 -82.9844 253° West 405 466 34,000  Level Indianapolis Center
09:11PM 37.9081 -83.1214 253° West 406 467 34,000 -420 Level Indianapolis Center
09:12PM 37.8753 -83.2583 253° West 407 468 33,200 -900 Descending Indianapolis Center
09:13PM 37.8428 -83.3931 253° West 403 464 32,200 -1,020 Descending Indianapolis Center
09:14PM 37.8033 -83.5519 253° West 405 466 31,200 -960 Descending Indianapolis Center
09:15PM 37.7703 -83.6906 253° West 410 472 30,300 -900 Descending Indianapolis Center
09:16PM 37.7342 -83.8317 252° West 419 482 29,400 -900 Descending Indianapolis Center
09:17PM 37.6997 -83.9719 253° West 419 482 28,500 -1,620 Descending Indianapolis Center
09:18PM 37.6650 -84.1111 253° West 417 480 26,200 -2,520 Descending Indianapolis Center
09:19PM 37.6269 -84.2436 250° West 406 467 23,400 -2,340 Descending Indianapolis Center
09:20PM 37.5883 -84.3678 249° West 385 443 21,500 -1,980 Descending Indianapolis Center
09:21PM 37.5531 -84.4858 249° West 363 418 19,400 -2,400 Descending Indianapolis Center
09:22PM 37.5711 -84.6200 280° West 337 388 16,600 -2,460 Descending Indianapolis Center
09:23PM 37.6011 -84.7361 288° West 346 398 14,400 -2,280 Descending Indianapolis Center
09:24PM 37.6275 -84.8439 287° West 325 374 12,000 -2,220 Descending Indianapolis Center
09:25PM 37.6531 -84.9519 287° West 323 372 9,900 -1,080 Descending Indianapolis Center
09:26PM 37.7069 -85.0269 312° West 285 328 9,900  Level Indianapolis Center
09:27PM 37.7608 -85.1014 312° West 286 329 9,900 -60 Level Indianapolis Center
09:28PM 37.8164 -85.1803 312° West 297 342 9,800 -780 Descending Indianapolis Center
09:29PM 37.8708 -85.2531 313° West 290 334 8,400 -1,560 Descending Indianapolis Center
09:30PM 37.9219 -85.3256 312° West 277 319 6,700 -1,260 Descending Indianapolis Center
09:31PM 37.9742 -85.3981 312° West 278 320 5,900 -420 Descending Indianapolis Center
09:32PM 38.0256 -85.4689 313° West 275 316 5,900  Level Indianapolis Center
09:33PM 38.0747 -85.5400 311° West 270 311 5,900  Level Indianapolis Center
09:34PM 38.1528 -85.5939 332° Northwest 280 322 5,900 -360 Level Indianapolis Center
09:36PM 38.2203 -85.6181 344° North 253 291 5,200 -900 Descending Indianapolis Center
09:37PM 38.2856 -85.6422 344° North 247 284 4,100 -1,080 Descending Indianapolis Center
09:38PM 38.3164 -85.6922 308° West 232 267 3,100 -840 Descending Indianapolis Center
09:39PM 38.2919 -85.7467 240° Southwest 195 224 2,400 -540 Descending Indianapolis Center
09:40PM 38.2475 -85.7511 184° South 176 203 2,000 -420 Descending Indianapolis Center